createdAt,value
2022-09-20T00:01:27.599Z,9.90
2022-09-20T00:03:58.104Z,9.90
2022-09-20T00:06:28.744Z,9.90
2022-09-20T00:08:56.839Z,9.90
2022-09-20T00:11:30.010Z,9.90
2022-09-20T00:14:00.015Z,9.90
2022-09-20T00:16:33.254Z,9.90
2022-09-20T00:19:04.335Z,9.80
2022-09-20T00:21:34.165Z,9.80
2022-09-20T00:24:02.373Z,9.70
2022-09-20T00:26:30.287Z,9.60
2022-09-20T00:29:13.733Z,9.60
2022-09-20T00:31:43.122Z,9.50
2022-09-20T00:34:29.878Z,9.50
2022-09-20T00:36:57.239Z,9.40
2022-09-20T00:39:24.565Z,9.40
2022-09-20T00:41:51.726Z,9.40
2022-09-20T00:44:43.310Z,9.40
2022-09-20T00:47:33.576Z,9.40
2022-09-20T00:50:11.864Z,9.40
2022-09-20T00:52:39.820Z,9.50
2022-09-20T00:55:08.755Z,9.50
2022-09-20T00:57:38.609Z,9.60
2022-09-20T01:00:10.530Z,9.60
2022-09-20T01:02:52.128Z,9.50
2022-09-20T01:05:20.357Z,9.50
2022-09-20T01:07:50.665Z,9.40
2022-09-20T01:10:18.399Z,9.40
2022-09-20T01:12:46.484Z,9.40
2022-09-20T01:15:15.847Z,9.40
2022-09-20T01:17:48.383Z,9.50
2022-09-20T01:20:26.363Z,9.50
2022-09-20T01:23:19.076Z,9.50
2022-09-20T01:26:28.996Z,9.60
2022-09-20T01:29:03.987Z,9.60
2022-09-20T01:31:36.849Z,9.60
2022-09-20T01:34:14.226Z,9.70
2022-09-20T01:36:52.584Z,9.60
2022-09-20T01:39:20.004Z,9.60
2022-09-20T01:42:00.004Z,9.70
2022-09-20T01:44:53.241Z,9.70
2022-09-20T01:47:54.069Z,9.70
2022-09-20T01:50:49.225Z,9.70
2022-09-20T01:53:38.247Z,9.70
2022-09-20T01:56:36.991Z,9.70
2022-09-20T01:59:22.624Z,9.60
2022-09-20T02:01:54.035Z,9.60
2022-09-20T02:04:40.646Z,9.50
2022-09-20T02:07:41.390Z,9.50
2022-09-20T02:10:32.725Z,9.50
2022-09-20T02:13:10.189Z,9.50
2022-09-20T02:16:11.636Z,9.40
2022-09-20T02:19:27.018Z,9.40
2022-09-20T02:22:09.249Z,9.40
2022-09-20T02:25:14.924Z,9.50
2022-09-20T02:27:54.056Z,9.50
2022-09-20T02:30:58.565Z,9.50
2022-09-20T02:33:43.748Z,9.60
2022-09-20T02:36:31.370Z,9.60
2022-09-20T02:39:08.246Z,9.60
2022-09-20T02:41:41.133Z,9.60
2022-09-20T02:44:29.666Z,9.60
2022-09-20T02:47:46.127Z,9.60
2022-09-20T02:50:31.145Z,9.60
2022-09-20T02:53:10.315Z,9.70
2022-09-20T02:56:14.623Z,9.70
2022-09-20T02:59:06.293Z,9.70
2022-09-20T03:01:58.033Z,9.60
2022-09-20T03:04:43.211Z,9.60
2022-09-20T03:07:21.799Z,9.70
2022-09-20T03:10:22.712Z,9.60
2022-09-20T03:12:59.525Z,9.60
2022-09-20T03:15:57.623Z,9.60
2022-09-20T03:18:39.104Z,9.60
2022-09-20T03:21:47.984Z,9.60
2022-09-20T03:24:43.322Z,9.60
2022-09-20T03:27:10.470Z,9.50
2022-09-20T03:30:16.422Z,9.60
2022-09-20T03:33:01.628Z,9.60
2022-09-20T03:35:37.960Z,9.60
2022-09-20T03:38:29.296Z,9.60
2022-09-20T03:41:02.211Z,9.70
2022-09-20T03:43:48.286Z,9.60
2022-09-20T03:46:33.747Z,9.70
2022-09-20T03:49:04.399Z,9.60
2022-09-20T03:51:54.575Z,9.60
2022-09-20T03:55:04.524Z,9.60
2022-09-20T03:57:40.819Z,9.60
2022-09-20T04:00:21.009Z,9.60
2022-09-20T04:02:51.365Z,9.60
2022-09-20T04:05:34.846Z,9.60
2022-09-20T04:08:24.287Z,9.60
2022-09-20T04:11:03.870Z,9.60
2022-09-20T04:13:52.805Z,9.50
2022-09-20T04:16:41.139Z,9.50
2022-09-20T04:19:32.178Z,9.60
2022-09-20T04:22:02.339Z,9.60
2022-09-20T04:25:18.084Z,9.60
2022-09-20T04:27:52.166Z,9.70
2022-09-20T04:30:29.687Z,9.60
2022-09-20T04:33:35.009Z,9.60
2022-09-20T04:36:29.220Z,9.60
2022-09-20T04:39:20.389Z,9.70
2022-09-20T04:42:08.196Z,9.70
2022-09-20T04:44:56.558Z,9.60
2022-09-20T04:47:39.463Z,9.60
2022-09-20T04:50:28.442Z,9.70
2022-09-20T04:53:07.681Z,9.60
2022-09-20T04:55:53.285Z,9.60
2022-09-20T04:58:42.282Z,9.60
2022-09-20T05:01:21.817Z,9.70
2022-09-20T05:04:18.786Z,9.60
2022-09-20T05:07:23.425Z,9.60
2022-09-20T05:09:56.598Z,9.50
2022-09-20T05:12:48.838Z,9.50
2022-09-20T05:15:41.424Z,9.60
2022-09-20T05:18:35.320Z,9.60
2022-09-20T05:21:37.586Z,9.70
2022-09-20T05:24:17.578Z,9.70
2022-09-20T05:27:08.441Z,9.70
2022-09-20T05:30:04.951Z,9.80
2022-09-20T05:32:52.070Z,9.90
2022-09-20T05:35:39.430Z,9.90
2022-09-20T05:38:37.294Z,10.00
2022-09-20T05:41:34.319Z,10.00
2022-09-20T05:44:20.347Z,10.20
2022-09-20T05:47:18.757Z,10.20
2022-09-20T05:49:45.880Z,10.20
2022-09-20T05:52:43.384Z,10.30
2022-09-20T05:55:20.810Z,10.40
2022-09-20T05:58:18.300Z,10.40
2022-09-20T06:01:00.018Z,10.50
2022-09-20T06:03:55.937Z,10.60
2022-09-20T06:06:35.256Z,10.60
2022-09-20T06:09:40.017Z,10.70
2022-09-20T06:12:29.881Z,10.70
2022-09-20T06:15:14.640Z,10.70
2022-09-20T06:17:49.276Z,10.60
2022-09-20T06:20:37.797Z,10.60
2022-09-20T06:23:06.213Z,10.70
2022-09-20T06:26:02.205Z,10.70
2022-09-20T06:28:37.908Z,10.70
2022-09-20T06:31:11.423Z,10.70
2022-09-20T06:33:57.659Z,10.60
2022-09-20T06:36:55.691Z,10.50
2022-09-20T06:40:00.246Z,10.60
2022-09-20T06:42:27.733Z,10.60
2022-09-20T06:44:55.966Z,10.60
2022-09-20T06:47:26.205Z,10.70
2022-09-20T06:49:53.725Z,10.80
2022-09-20T06:52:22.813Z,11.00
2022-09-20T06:54:54.527Z,11.20
2022-09-20T06:57:33.868Z,11.10
2022-09-20T07:00:01.315Z,10.80
2022-09-20T07:02:28.520Z,10.80
2022-09-20T07:04:59.479Z,10.80
2022-09-20T07:07:27.307Z,10.70
2022-09-20T07:09:54.626Z,10.60
2022-09-20T07:12:21.843Z,10.50
2022-09-20T07:14:50.712Z,10.50
2022-09-20T07:17:17.863Z,10.40
2022-09-20T07:19:44.950Z,10.30
2022-09-20T07:22:12.552Z,10.30
2022-09-20T07:24:40.679Z,10.30
2022-09-20T07:27:08.452Z,10.40
2022-09-20T07:29:35.874Z,10.40
2022-09-20T07:32:03.763Z,10.40
2022-09-20T07:34:31.027Z,10.40
2022-09-20T07:37:00.271Z,10.40
2022-09-20T07:39:27.617Z,10.60
2022-09-20T07:41:54.802Z,10.70
2022-09-20T07:44:24.630Z,10.90
2022-09-20T07:46:53.252Z,11.10
2022-09-20T07:49:22.164Z,11.60
2022-09-20T07:51:50.443Z,12.10
2022-09-20T07:54:18.141Z,12.60
2022-09-20T07:56:46.391Z,13.50
2022-09-20T07:59:14.522Z,13.70
2022-09-20T08:01:42.839Z,13.80
2022-09-20T08:04:10.593Z,14.00
2022-09-20T08:06:43.630Z,14.20
2022-09-20T08:09:12.354Z,14.50
2022-09-20T08:11:42.267Z,14.20
2022-09-20T08:14:14.488Z,13.50
2022-09-20T08:16:47.856Z,13.20
2022-09-20T08:19:17.752Z,13.30
2022-09-20T08:21:45.489Z,12.90
2022-09-20T08:24:13.369Z,13.00
2022-09-20T08:26:40.716Z,12.90
2022-09-20T08:29:08.293Z,12.90
2022-09-20T08:31:38.690Z,13.10
2022-09-20T08:34:09.058Z,13.90
2022-09-20T08:36:41.378Z,13.90
2022-09-20T08:42:13.709Z,13.50
2022-09-20T08:44:58.147Z,13.30
2022-09-20T08:47:28.408Z,13.10
2022-09-20T08:49:57.183Z,12.50
2022-09-20T08:52:40.319Z,13.10
2022-09-20T08:55:20.231Z,13.80
2022-09-20T08:57:53.441Z,14.90
2022-09-20T09:00:24.271Z,15.70
2022-09-20T09:02:55.970Z,16.30
2022-09-20T09:05:31.731Z,16.90
2022-09-20T09:08:08.172Z,16.90
2022-09-20T09:10:43.338Z,16.20
2022-09-20T09:13:26.170Z,15.50
2022-09-20T09:16:01.801Z,15.10
2022-09-20T09:18:36.207Z,14.90
2022-09-20T09:21:05.482Z,13.20
2022-09-20T09:23:45.270Z,12.90
2022-09-20T09:26:24.203Z,12.90
2022-09-20T09:29:19.209Z,13.10
2022-09-20T09:31:49.419Z,12.70
2022-09-20T09:34:27.348Z,12.60
2022-09-20T09:36:56.135Z,12.80
2022-09-20T09:39:27.899Z,13.00
2022-09-20T09:41:56.248Z,13.10
2022-09-20T09:44:24.972Z,13.30
2022-09-20T09:46:53.891Z,13.30
2022-09-20T09:49:26.447Z,13.40
2022-09-20T09:52:16.222Z,13.20
2022-09-20T09:55:05.797Z,13.40
2022-09-20T09:58:05.689Z,13.20
2022-09-20T10:00:35.891Z,13.20
2022-09-20T10:03:09.411Z,13.00
2022-09-20T10:05:56.429Z,13.50
2022-09-20T10:08:47.432Z,13.50
2022-09-20T10:11:23.629Z,12.90
2022-09-20T10:14:03.519Z,12.80
2022-09-20T10:16:56.899Z,12.50
2022-09-20T10:19:42.777Z,12.30
2022-09-20T10:22:34.430Z,12.30
2022-09-20T10:25:33.960Z,12.00
2022-09-20T10:28:28.312Z,12.00
2022-09-20T10:31:04.655Z,11.60
2022-09-20T10:34:06.286Z,11.60
2022-09-20T10:36:53.760Z,12.00
2022-09-20T10:39:36.752Z,12.10
2022-09-20T10:42:48.751Z,12.20
2022-09-20T10:46:27.881Z,12.20
2022-09-20T10:48:51.832Z,12.00
2022-09-20T10:51:33.224Z,12.10
2022-09-20T10:54:20.258Z,12.20
2022-09-20T10:56:51.909Z,12.20
2022-09-20T10:59:37.912Z,11.90
2022-09-20T11:02:26.627Z,11.80
2022-09-20T11:05:19.290Z,11.90
2022-09-20T11:07:54.548Z,11.90
2022-09-20T11:10:50.011Z,12.00
2022-09-20T11:13:36.022Z,12.00
2022-09-20T11:16:26.734Z,12.30
2022-09-20T11:19:36.157Z,12.40
2022-09-20T11:22:09.209Z,12.70
2022-09-20T11:24:43.491Z,12.80
2022-09-20T11:27:32.169Z,12.90
2022-09-20T11:30:15.652Z,12.50
2022-09-20T11:32:53.679Z,12.40
2022-09-20T11:35:35.187Z,12.50
2022-09-20T11:38:17.731Z,12.60
2022-09-20T11:40:53.909Z,12.60
2022-09-20T11:43:24.213Z,12.60
2022-09-20T11:45:57.196Z,12.70
2022-09-20T11:48:43.863Z,12.50
2022-09-20T11:51:42.390Z,12.50
2022-09-20T11:54:33.394Z,12.30
2022-09-20T11:57:00.952Z,12.20
2022-09-20T11:59:36.438Z,12.10
2022-09-20T12:02:15.529Z,12.10
2022-09-20T12:04:48.138Z,12.10
2022-09-20T12:07:32.367Z,12.20
2022-09-20T12:10:23.377Z,12.60
2022-09-20T12:13:06.127Z,12.70
2022-09-20T12:15:39.503Z,12.60
2022-09-20T12:18:33.289Z,12.60
2022-09-20T12:21:04.320Z,12.50
2022-09-20T12:23:40.770Z,12.40
2022-09-20T12:26:23.517Z,12.50
2022-09-20T12:28:55.113Z,12.60
2022-09-20T12:31:22.582Z,12.50
2022-09-20T12:34:11.763Z,12.60
2022-09-20T12:36:44.151Z,12.60
2022-09-20T12:39:11.590Z,12.80
2022-09-20T12:41:50.612Z,12.80
2022-09-20T12:44:57.110Z,12.90
2022-09-20T12:47:33.752Z,12.90
2022-09-20T12:50:22.533Z,12.90
2022-09-20T12:52:57.696Z,12.60
2022-09-20T12:55:47.533Z,12.30
2022-09-20T12:58:14.993Z,12.40
2022-09-20T13:00:47.205Z,12.10
2022-09-20T13:03:40.640Z,12.00
2022-09-20T13:06:13.558Z,11.90
2022-09-20T13:09:01.928Z,11.80
2022-09-20T13:11:54.992Z,11.60
2022-09-20T13:14:29.237Z,11.50
2022-09-20T13:17:27.923Z,11.30
2022-09-20T13:19:56.688Z,11.30
2022-09-20T13:22:30.372Z,11.40
2022-09-20T13:25:03.340Z,11.30
2022-09-20T13:27:34.851Z,11.50
2022-09-20T13:30:18.445Z,11.40
2022-09-20T13:32:46.203Z,11.40
2022-09-20T13:35:13.632Z,11.30
2022-09-20T13:37:47.166Z,11.40
2022-09-20T13:40:18.732Z,11.20
2022-09-20T13:42:47.671Z,11.30
2022-09-20T13:45:17.046Z,11.00
2022-09-20T13:47:48.757Z,11.10
2022-09-20T13:50:31.412Z,11.00
2022-09-20T13:53:02.032Z,11.20
2022-09-20T13:55:38.566Z,11.30
2022-09-20T13:58:27.212Z,11.50
2022-09-20T14:01:06.643Z,11.50
2022-09-20T14:03:35.688Z,11.50
2022-09-20T14:06:14.472Z,11.30
2022-09-20T14:08:45.965Z,11.40
2022-09-20T14:11:16.360Z,11.40
2022-09-20T14:13:47.208Z,11.40
2022-09-20T14:16:16.331Z,11.30
2022-09-20T14:18:48.447Z,11.30
2022-09-20T14:21:23.688Z,11.30
2022-09-20T14:23:58.358Z,11.30
2022-09-20T14:26:40.445Z,11.40
2022-09-20T14:29:32.742Z,11.10
2022-09-20T14:32:05.206Z,11.20
2022-09-20T14:34:36.775Z,11.20
2022-09-20T14:37:24.175Z,11.20
2022-09-20T14:39:58.244Z,11.20
2022-09-20T14:42:43.886Z,11.10
2022-09-20T14:45:32.868Z,11.20
2022-09-20T14:48:11.657Z,11.50
2022-09-20T14:50:44.715Z,11.70
2022-09-20T14:53:12.576Z,11.90
2022-09-20T14:56:01.588Z,12.00
2022-09-20T14:58:29.247Z,12.10
2022-09-20T15:01:05.252Z,12.10
2022-09-20T15:03:43.171Z,12.30
2022-09-20T15:06:11.957Z,11.80
2022-09-20T15:08:45.433Z,11.70
2022-09-20T15:11:18.602Z,11.70
2022-09-20T15:13:46.489Z,11.40
2022-09-20T15:16:17.810Z,11.30
2022-09-20T15:18:45.365Z,11.10
2022-09-20T15:21:13.291Z,11.00
2022-09-20T15:23:40.930Z,10.80
2022-09-20T15:26:10.045Z,10.60
2022-09-20T15:28:37.510Z,10.60
2022-09-20T15:31:04.904Z,10.70
2022-09-20T15:33:32.870Z,10.80
2022-09-20T15:36:02.854Z,10.70
2022-09-20T15:38:30.729Z,10.70
2022-09-20T15:41:01.422Z,10.60
2022-09-20T15:43:31.331Z,10.60
2022-09-20T15:46:02.128Z,10.50
2022-09-20T15:48:30.635Z,10.30
2022-09-20T15:51:11.315Z,10.30
2022-09-20T15:53:42.591Z,10.30
2022-09-20T15:56:28.290Z,10.20
2022-09-20T15:59:01.038Z,10.00
2022-09-20T16:01:33.813Z,10.00
2022-09-20T16:04:10.067Z,9.90
2022-09-20T16:06:38.541Z,9.80
2022-09-20T16:09:06.593Z,9.60
2022-09-20T16:11:34.336Z,9.60
2022-09-20T16:14:05.299Z,9.50
2022-09-20T16:16:38.897Z,9.40
2022-09-20T16:19:21.027Z,9.40
2022-09-20T16:21:59.397Z,9.40
2022-09-20T16:24:29.555Z,9.20
2022-09-20T16:26:57.883Z,9.10
2022-09-20T16:29:26.169Z,9.00
2022-09-20T16:31:55.081Z,8.90
2022-09-20T16:34:33.790Z,8.70
2022-09-20T16:37:02.442Z,8.50
2022-09-20T16:39:32.369Z,8.30
2022-09-20T16:42:05.394Z,8.30
2022-09-20T16:44:35.065Z,8.10
2022-09-20T16:47:04.447Z,7.90
2022-09-20T16:49:31.866Z,7.80
2022-09-20T16:51:59.243Z,7.80
2022-09-20T16:54:31.610Z,7.60
2022-09-20T16:56:59.687Z,7.60
2022-09-20T16:59:30.598Z,7.40
2022-09-20T17:01:57.833Z,7.20
2022-09-20T17:04:25.365Z,7.30
2022-09-20T17:06:53.286Z,7.10
2022-09-20T17:09:21.247Z,7.10
2022-09-20T17:11:50.566Z,6.90
2022-09-20T17:14:20.685Z,6.80
2022-09-20T17:16:50.614Z,6.70
2022-09-20T17:19:21.507Z,6.50
2022-09-20T17:21:50.777Z,6.50
2022-09-20T17:24:20.088Z,6.60
2022-09-20T17:26:48.982Z,6.50
2022-09-20T17:29:17.746Z,6.40
2022-09-20T17:31:54.059Z,6.10
2022-09-20T17:34:22.293Z,6.00
2022-09-20T17:36:51.031Z,5.80
2022-09-20T17:39:18.705Z,5.80
2022-09-20T17:41:50.309Z,5.60
2022-09-20T17:44:17.887Z,5.60
2022-09-20T17:46:48.121Z,5.50
2022-09-20T17:49:18.281Z,5.50
2022-09-20T17:51:50.697Z,5.60
2022-09-20T17:54:19.360Z,5.40
2022-09-20T17:56:49.551Z,5.30
2022-09-20T17:59:18.312Z,5.20
2022-09-20T18:01:48.005Z,5.20
2022-09-20T18:04:16.206Z,5.20
2022-09-20T18:06:48.946Z,5.20
2022-09-20T18:09:21.589Z,5.10
2022-09-20T18:11:53.246Z,5.00
2022-09-20T18:14:23.607Z,4.90
2022-09-20T18:16:57.161Z,4.80
2022-09-20T18:19:24.526Z,4.70
2022-09-20T18:21:51.783Z,4.70
2022-09-20T18:24:19.352Z,4.70
2022-09-20T18:26:47.119Z,4.70
2022-09-20T18:29:18.100Z,4.70
2022-09-20T18:31:51.082Z,4.80
2022-09-20T18:34:26.583Z,4.90
2022-09-20T18:36:56.629Z,4.80
2022-09-20T18:39:25.609Z,4.80
2022-09-20T18:41:53.818Z,4.70
2022-09-20T18:44:22.367Z,4.70
2022-09-20T18:46:54.440Z,4.60
2022-09-20T18:49:23.257Z,4.50
2022-09-20T18:51:51.857Z,4.50
2022-09-20T18:54:19.165Z,4.50
2022-09-20T18:56:51.019Z,4.50
2022-09-20T18:59:21.121Z,4.50
2022-09-20T19:01:54.244Z,4.40
2022-09-20T19:04:52.859Z,4.40
2022-09-20T19:07:25.960Z,4.30
2022-09-20T19:10:22.156Z,4.30
2022-09-20T19:12:58.599Z,4.20
2022-09-20T19:15:47.588Z,4.20
2022-09-20T19:18:44.068Z,4.30
2022-09-20T19:21:56.900Z,4.20
2022-09-20T19:25:01.558Z,4.10
2022-09-20T19:27:29.239Z,4.10
2022-09-20T19:29:56.862Z,4.10
2022-09-20T19:32:26.339Z,4.10
2022-09-20T19:34:56.438Z,4.10
2022-09-20T19:37:30.659Z,4.00
2022-09-20T19:40:15.272Z,4.00
2022-09-20T19:43:09.253Z,4.00
2022-09-20T19:45:51.498Z,3.90
2022-09-20T19:48:22.157Z,4.00
2022-09-20T19:50:52.535Z,4.00
2022-09-20T19:53:27.179Z,3.90
2022-09-20T19:56:06.279Z,3.90
2022-09-20T19:58:35.440Z,3.90
2022-09-20T20:01:02.994Z,3.90
2022-09-20T20:03:30.673Z,3.80
2022-09-20T20:06:28.138Z,3.80
2022-09-20T20:09:04.078Z,3.70
2022-09-20T20:11:43.539Z,3.70
2022-09-20T20:14:40.782Z,3.70
2022-09-20T20:17:17.108Z,3.80
2022-09-20T20:19:51.439Z,3.70
2022-09-20T20:22:32.678Z,3.70
2022-09-20T20:25:00.558Z,3.70
2022-09-20T20:27:32.600Z,3.70
2022-09-20T20:30:00.658Z,3.80
2022-09-20T20:32:28.377Z,3.70
2022-09-20T20:34:55.797Z,3.70
2022-09-20T20:37:24.489Z,3.50
2022-09-20T20:39:52.397Z,3.50
2022-09-20T20:42:19.757Z,3.50
2022-09-20T20:44:47.652Z,3.50
2022-09-20T20:47:14.782Z,3.50
2022-09-20T20:49:42.537Z,3.50
2022-09-20T20:52:09.958Z,3.40
2022-09-20T20:54:37.559Z,3.30
2022-09-20T20:57:05.118Z,3.30
2022-09-20T20:59:33.147Z,3.30
2022-09-20T21:02:02.407Z,3.20
2022-09-20T21:04:33.360Z,3.30
2022-09-20T21:07:01.878Z,3.30
2022-09-20T21:09:29.438Z,3.30
2022-09-20T21:11:56.657Z,3.30
2022-09-20T21:14:23.789Z,3.20
2022-09-20T21:16:52.235Z,3.20
2022-09-20T21:19:20.358Z,3.10
2022-09-20T21:21:48.094Z,3.10
2022-09-20T21:24:19.800Z,3.00
2022-09-20T21:26:47.649Z,3.00
2022-09-20T21:29:16.664Z,3.00
2022-09-20T21:31:46.018Z,2.90
2022-09-20T21:34:15.542Z,2.90
2022-09-20T21:36:47.507Z,2.80
2022-09-20T21:39:14.870Z,2.80
2022-09-20T21:41:42.112Z,2.80
2022-09-20T21:44:12.417Z,2.80
2022-09-20T21:46:41.737Z,2.80
2022-09-20T21:49:11.155Z,2.90
2022-09-20T21:51:41.658Z,2.90
2022-09-20T21:54:09.785Z,2.90
2022-09-20T21:56:38.805Z,2.90
2022-09-20T21:59:07.776Z,2.90
2022-09-20T22:01:38.122Z,2.90
2022-09-20T22:04:10.900Z,2.90
2022-09-20T22:06:42.897Z,2.80
2022-09-20T22:09:12.817Z,2.80
2022-09-20T22:11:43.448Z,2.70
2022-09-20T22:14:12.063Z,2.70
2022-09-20T22:16:44.129Z,2.70
2022-09-20T22:19:14.021Z,2.70
2022-09-20T22:21:43.813Z,2.70
2022-09-20T22:24:13.581Z,2.70
2022-09-20T22:26:43.549Z,2.60
2022-09-20T22:29:11.196Z,2.60
2022-09-20T22:31:46.797Z,2.50
2022-09-20T22:34:18.824Z,2.50
2022-09-20T22:36:46.565Z,2.50
2022-09-20T22:39:14.867Z,2.50
2022-09-20T22:41:43.073Z,2.50
2022-09-20T22:44:11.998Z,2.40
2022-09-20T22:46:39.852Z,2.30
2022-09-20T22:49:08.652Z,2.30
2022-09-20T22:51:36.692Z,2.30
2022-09-20T22:54:09.151Z,2.40
2022-09-20T22:56:37.363Z,2.40
2022-09-20T22:59:12.267Z,2.30
2022-09-20T23:01:45.015Z,2.30
2022-09-20T23:04:16.671Z,2.30
2022-09-20T23:06:47.952Z,2.20
2022-09-20T23:09:17.905Z,2.30
2022-09-20T23:11:45.801Z,2.20
2022-09-20T23:14:16.050Z,2.20
2022-09-20T23:16:43.571Z,2.20
2022-09-20T23:19:11.813Z,2.10
2022-09-20T23:21:40.540Z,2.10
2022-09-20T23:24:10.653Z,2.10
2022-09-20T23:26:39.674Z,2.10
2022-09-20T23:29:11.038Z,2.10
2022-09-20T23:31:39.830Z,2.10
2022-09-20T23:34:09.288Z,2.00
2022-09-20T23:36:38.829Z,2.00
2022-09-20T23:39:08.112Z,2.00
2022-09-20T23:41:36.953Z,1.90
2022-09-20T23:44:06.718Z,1.90
2022-09-20T23:46:34.628Z,1.80
2022-09-20T23:49:02.559Z,1.80
2022-09-20T23:51:31.012Z,1.80
2022-09-20T23:53:58.949Z,1.80
2022-09-20T23:56:27.581Z,1.70
2022-09-20T23:58:54.999Z,1.80
